LiveATC.Net - Listen to live air traffic control over the Internet!


ICAO: SBDN  IATA: PPB   Airport: Presidente Prudente State Airport
City: Presidente Prudente/Sao Paulo
Country: Brazil   Continent: South America
SBDN METAR Weather: SBDN 201400Z 11010KT CAVOK 26/14 Q1016
SBDN Flight Activity (FlightAware)

SBDN Twr/App
Feed Status: UP   Listeners: 0
Listen in your browser - HTML5 player (in browser, HTML5)
Listen in your browser - requires Flash (in browser, requires Flash)
Click here to listen with your own player (launches your MP3 player)
SBDN Twr/App Audio Archives
FacilityFrequency
Air-to-Air123.450
Curitiba Sector 13133.595
Prudente Approach118.450
Prudente Tower125.450

NOTICE

Unauthorized use prohibited. See LiveATC.net Terms of Service


Find LiveATC Audio Streams


Airport/ARTCC Code

Frequency Search
(e.g., 124.400, 128.75)
Site-wide search
 


Browse LiveATC Feeds
Top 50 LiveATC Feeds
Bad Weather Areas

LiveATC FAQ
Offer a LiveATC Feed
Contact LiveATC.net
Press Inquiries

LiveATC on iPhone
LiveATC on Android

Windows Phone
Windows 8/10

LiveATC Mobile
(Mobile browser)

ATC Audio Archives
Interesting Recordings

LiveATC Forums


Home Page
About LiveATC.net
Make a Donation
Terms of Use
Privacy Policy

Canadian Air Freqs

AIRMETs/SIGMETs

FAA Airport Status
Nat'l Airspace Status
Arrival Demand Charts


Server Software By:
Icecast.org
Liquidsoap